Time,TemperatureF,DewpointF,PressureIn,WindDirection,WindDirectionDegrees,WindSpeedMPH,WindSpeedGustMPH,Humidity,HourlyPrecipIn,Conditions,Clouds,dailyrainin,SoftwareType,DateUTC
2013-06-27 00:01:00,55.4,46.9,24.95,East,88,3.1,3.6,73,0.00,,---,0.00,VWS V14.01,2013-06-27 06:01:00,
2013-06-27 00:06:00,55.6,47.1,24.95,East,84,3.6,3.6,73,0.00,,---,0.00,VWS V14.01,2013-06-27 06:06:00,
2013-06-27 00:11:00,55.6,46.7,24.95,East,100,0.0,0.0,72,0.00,,---,0.00,VWS V14.01,2013-06-27 06:11:00,
2013-06-27 00:16:00,55.6,46.7,24.95,ESE,113,5.4,5.4,72,0.00,,---,0.00,VWS V14.01,2013-06-27 06:16:00,
2013-06-27 00:21:00,55.6,47.1,24.95,ESE,116,3.1,3.6,73,0.00,,---,0.00,VWS V14.01,2013-06-27 06:21:00,
2013-06-27 00:26:00,55.2,47.1,24.95,ESE,116,2.2,2.7,74,0.00,,---,0.00,VWS V14.01,2013-06-27 06:26:00,
2013-06-27 00:31:00,54.7,46.9,24.95,ESE,112,2.2,3.1,75,0.00,,---,0.00,VWS V14.01,2013-06-27 06:31:00,
2013-06-27 00:36:00,54.3,46.6,24.95,ESE,113,3.1,3.1,75,0.00,,---,0.00,VWS V14.01,2013-06-27 06:36:00,
2013-06-27 00:41:00,54.1,46.4,24.95,ESE,113,0.0,0.0,75,0.00,,---,0.00,VWS V14.01,2013-06-27 06:41:00,
2013-06-27 00:46:00,54.0,46.6,24.95,ESE,112,4.9,5.4,76,0.00,,---,0.00,VWS V14.01,2013-06-27 06:46:00,
2013-06-27 00:51:00,54.0,46.6,24.95,SE,127,2.7,3.1,76,0.00,,---,0.00,VWS V14.01,2013-06-27 06:51:00,
2013-06-27 00:56:00,54.1,46.4,24.95,SE,137,4.5,4.9,75,0.00,,---,0.00,VWS V14.01,2013-06-27 06:56:00,
2013-06-27 01:01:00,54.1,46.0,24.95,SE,125,3.6,3.6,74,0.00,,---,0.00,VWS V14.01,2013-06-27 07:01:00,
2013-06-27 01:06:00,54.0,45.9,24.95,SE,129,0.0,3.1,74,0.00,,---,0.00,VWS V14.01,2013-06-27 07:06:00,
2013-06-27 01:11:00,53.6,45.9,24.95,SSE,148,2.2,2.2,75,0.00,,---,0.00,VWS V14.01,2013-06-27 07:11:00,
2013-06-27 01:16:00,53.4,45.7,24.95,SE,142,0.0,0.0,75,0.00,,---,0.00,VWS V14.01,2013-06-27 07:16:00,
2013-06-27 01:21:00,53.2,45.5,24.95,SSW,209,0.0,0.0,75,0.00,,---,0.00,VWS V14.01,2013-06-27 07:21:00,
2013-06-27 01:26:00,52.9,45.5,24.95,SSW,209,0.0,0.0,76,0.00,,---,0.00,VWS V14.01,2013-06-27 07:26:00,
2013-06-27 01:31:00,52.5,45.2,24.95,SSW,209,0.0,0.0,76,0.00,,---,0.00,VWS V14.01,2013-06-27 07:31:00,
2013-06-27 01:36:00,52.2,44.8,24.95,WSW,245,0.0,0.0,76,0.00,,---,0.00,VWS V14.01,2013-06-27 07:36:00,
2013-06-27 01:41:00,51.8,45.2,24.95,WNW,286,0.0,0.0,78,0.00,,---,0.00,VWS V14.01,2013-06-27 07:41:00,
2013-06-27 01:46:00,51.6,45.7,24.95,SW,231,2.2,2.2,80,0.00,,---,0.00,VWS V14.01,2013-06-27 07:46:00,
2013-06-27 01:51:00,51.6,46.0,24.95,WSW,244,2.7,2.7,81,0.00,,---,0.00,VWS V14.01,2013-06-27 07:51:00,
2013-06-27 01:56:00,51.4,46.1,24.98,West,275,4.0,4.0,82,0.00,,---,0.00,VWS V14.01,2013-06-27 07:56:00,
2013-06-27 02:01:00,51.4,46.5,24.98,WNW,294,2.7,2.7,83,0.00,,---,0.00,VWS V14.01,2013-06-27 08:01:00,
2013-06-27 02:06:00,51.6,47.0,24.98,WSW,258,3.6,3.6,84,0.00,,---,0.00,VWS V14.01,2013-06-27 08:06:00,
2013-06-27 02:11:00,51.6,47.3,24.98,West,267,4.0,4.0,85,0.00,,---,0.00,VWS V14.01,2013-06-27 08:11:00,
2013-06-27 02:16:00,51.4,47.1,24.98,West,262,4.0,4.0,85,0.00,,---,0.00,VWS V14.01,2013-06-27 08:16:00,
2013-06-27 02:21:00,51.4,47.1,24.98,West,265,5.4,5.4,85,0.00,,---,0.00,VWS V14.01,2013-06-27 08:21:00,
2013-06-27 02:26:00,51.4,47.1,24.98,West,259,3.1,3.1,85,0.00,,---,0.00,VWS V14.01,2013-06-27 08:26:00,
2013-06-27 02:31:00,51.4,47.1,24.98,West,265,3.1,3.1,85,0.00,,---,0.00,VWS V14.01,2013-06-27 08:31:00,
2013-06-27 02:36:00,51.3,46.9,24.98,West,274,3.1,3.1,85,0.00,,---,0.00,VWS V14.01,2013-06-27 08:36:00,
2013-06-27 02:41:00,51.3,46.9,24.98,West,267,3.1,3.1,85,0.00,,---,0.00,VWS V14.01,2013-06-27 08:41:00,
2013-06-27 02:46:00,51.3,46.9,24.98,WNW,303,0.0,0.0,85,0.00,,---,0.00,VWS V14.01,2013-06-27 08:46:00,
2013-06-27 02:51:00,51.1,47.0,24.98,WNW,303,0.0,0.0,86,0.00,,---,0.00,VWS V14.01,2013-06-27 08:51:00,
2013-06-27 02:56:00,50.9,46.9,24.98,WNW,303,0.0,0.0,86,0.00,,---,0.00,VWS V14.01,2013-06-27 08:56:00,
2013-06-27 03:01:00,50.7,46.7,24.98,WNW,303,0.0,0.0,86,0.00,,---,0.00,VWS V14.01,2013-06-27 09:01:00,
2013-06-27 03:06:00,50.5,46.5,24.98,WNW,303,0.0,0.0,86,0.00,,---,0.00,VWS V14.01,2013-06-27 09:06:00,
2013-06-27 03:11:00,50.4,46.3,24.98,WNW,303,0.0,0.0,86,0.00,,---,0.00,VWS V14.01,2013-06-27 09:11:00,
2013-06-27 03:16:00,50.2,46.2,24.98,WNW,303,0.0,0.0,86,0.00,,---,0.00,VWS V14.01,2013-06-27 09:16:00,
2013-06-27 03:21:00,50.2,46.2,24.98,West,268,2.7,2.7,86,0.00,,---,0.00,VWS V14.01,2013-06-27 09:21:00,
2013-06-27 03:26:00,50.4,46.3,24.98,West,260,0.0,0.0,86,0.00,,---,0.00,VWS V14.01,2013-06-27 09:26:00,
2013-06-27 03:31:00,50.4,46.6,24.98,West,261,0.0,0.0,87,0.00,,---,0.00,VWS V14.01,2013-06-27 09:31:00,
2013-06-27 03:36:00,50.4,46.3,24.98,West,261,0.0,0.0,86,0.00,,---,0.00,VWS V14.01,2013-06-27 09:36:00,
2013-06-27 03:41:00,50.2,46.5,24.98,West,261,0.0,0.0,87,0.00,,---,0.00,VWS V14.01,2013-06-27 09:41:00,
2013-06-27 03:46:00,50.2,46.5,24.98,West,261,0.0,0.0,87,0.00,,---,0.00,VWS V14.01,2013-06-27 09:46:00,
2013-06-27 03:51:00,50.0,46.3,24.98,West,261,0.0,0.0,87,0.00,,---,0.00,VWS V14.01,2013-06-27 09:51:00,
2013-06-27 03:56:00,50.2,46.5,24.98,West,261,0.0,0.0,87,0.00,,---,0.00,VWS V14.01,2013-06-27 09:56:00,
2013-06-27 04:00:00,50.0,46.3,24.98,West,262,0.0,0.0,87,0.00,,---,0.00,VWS V14.01,2013-06-27 10:00:00,
2013-06-27 04:05:00,49.8,46.1,24.98,West,261,0.0,0.0,87,0.00,,---,0.00,VWS V14.01,2013-06-27 10:05:00,
2013-06-27 04:10:00,49.5,45.8,24.98,West,261,0.0,0.0,87,0.00,,---,0.00,VWS V14.01,2013-06-27 10:10:00,
2013-06-27 04:15:00,49.3,45.6,24.98,West,261,0.0,0.0,87,0.00,,---,0.00,VWS V14.01,2013-06-27 10:15:00,
2013-06-27 04:20:00,49.1,45.4,24.98,West,261,2.7,4.0,87,0.00,,---,0.00,VWS V14.01,2013-06-27 10:20:00,
2013-06-27 04:25:00,48.9,45.5,24.98,West,262,0.0,0.0,88,0.00,,---,0.00,VWS V14.01,2013-06-27 10:25:00,
2013-06-27 04:30:00,48.9,45.5,24.98,West,262,0.0,0.0,88,0.00,,---,0.00,VWS V14.01,2013-06-27 10:30:00,
2013-06-27 04:35:00,48.9,45.8,24.98,WNW,282,3.1,3.1,89,0.00,,---,0.00,VWS V14.01,2013-06-27 10:35:00,
2013-06-27 04:40:00,48.7,45.7,24.98,WNW,295,3.1,4.0,89,0.00,,---,0.00,VWS V14.01,2013-06-27 10:40:00,
2013-06-27 04:45:00,48.7,45.9,24.98,West,264,3.1,3.6,90,0.00,,---,0.00,VWS V14.01,2013-06-27 10:45:00,
2013-06-27 04:50:00,48.7,46.2,24.98,West,265,3.1,3.6,91,0.00,,---,0.00,VWS V14.01,2013-06-27 10:50:00,
2013-06-27 04:55:00,48.6,46.1,24.98,WNW,295,0.0,0.0,91,0.00,,---,0.00,VWS V14.01,2013-06-27 10:55:00,
2013-06-27 05:00:00,48.6,46.3,24.98,WNW,295,0.0,0.0,92,0.00,,---,0.00,VWS V14.01,2013-06-27 11:00:00,
2013-06-27 05:05:00,48.4,46.2,24.98,WNW,289,3.6,4.0,92,0.00,,---,0.00,VWS V14.01,2013-06-27 11:05:00,
2013-06-27 05:10:00,48.4,46.2,24.98,WNW,297,3.6,4.0,92,0.00,,---,0.00,VWS V14.01,2013-06-27 11:10:00,
2013-06-27 05:11:00,48.4,46.2,24.98,WNW,297,2.7,3.6,92,0.00,,---,0.00,VWS V14.01,2013-06-27 11:11:00,
2013-06-27 05:16:00,48.6,46.3,24.98,WNW,294,0.0,0.0,92,0.00,,---,0.00,VWS V14.01,2013-06-27 11:16:00,
2013-06-27 05:21:00,48.6,46.6,24.98,WNW,294,0.0,0.0,93,0.00,,---,0.00,VWS V14.01,2013-06-27 11:21:00,
2013-06-27 05:26:00,48.9,47.0,24.98,West,276,3.1,3.1,93,0.00,,---,0.00,VWS V14.01,2013-06-27 11:26:00,
2013-06-27 05:31:00,49.1,47.2,24.98,West,276,0.0,0.0,93,0.00,,---,0.00,VWS V14.01,2013-06-27 11:31:00,
2013-06-27 05:36:00,49.1,47.2,24.98,West,276,0.0,0.0,93,0.00,,---,0.00,VWS V14.01,2013-06-27 11:36:00,
2013-06-27 05:41:00,48.7,46.8,24.98,West,265,3.1,3.6,93,0.00,,---,0.00,VWS V14.01,2013-06-27 11:41:00,
2013-06-27 05:46:00,48.4,46.2,24.98,West,267,3.6,3.6,92,0.00,,---,0.00,VWS V14.01,2013-06-27 11:46:00,
2013-06-27 05:51:00,48.2,46.0,24.98,West,274,2.7,4.0,92,0.00,,---,0.00,VWS V14.01,2013-06-27 11:51:00,
2013-06-27 05:56:00,48.0,45.8,24.98,West,263,2.7,4.0,92,0.00,,---,0.00,VWS V14.01,2013-06-27 11:56:00,
2013-06-27 06:01:00,48.0,45.8,24.98,WSW,244,2.7,3.6,92,0.00,,---,0.00,VWS V14.01,2013-06-27 12:01:00,
2013-06-27 06:06:00,48.0,45.8,24.98,SW,222,0.0,0.0,92,0.00,,---,0.00,VWS V14.01,2013-06-27 12:06:00,
2013-06-27 06:11:00,48.0,46.1,24.98,West,263,3.6,4.9,93,0.00,,---,0.00,VWS V14.01,2013-06-27 12:11:00,
2013-06-27 06:16:00,48.2,46.0,24.98,West,275,3.1,3.1,92,0.00,,---,0.00,VWS V14.01,2013-06-27 12:16:00,
2013-06-27 06:21:00,48.4,46.5,24.98,West,264,3.1,5.4,93,0.00,,---,0.00,VWS V14.01,2013-06-27 12:21:00,
2013-06-27 06:26:00,48.6,46.6,24.98,WSW,246,2.7,3.1,93,0.00,,---,0.00,VWS V14.01,2013-06-27 12:26:00,
2013-06-27 06:31:00,48.7,46.8,24.98,West,272,5.4,5.4,93,0.00,,---,0.00,VWS V14.01,2013-06-27 12:31:00,
2013-06-27 06:36:00,48.9,47.0,24.98,West,275,3.6,5.4,93,0.00,,---,0.00,VWS V14.01,2013-06-27 12:36:00,
2013-06-27 06:41:00,49.1,47.2,24.98,WNW,286,4.0,4.9,93,0.00,,---,0.00,VWS V14.01,2013-06-27 12:41:00,
2013-06-27 06:46:00,49.3,47.3,24.98,West,268,5.4,5.4,93,0.00,,---,0.00,VWS V14.01,2013-06-27 12:46:00,
2013-06-27 06:51:00,49.3,47.3,24.98,West,270,2.7,4.0,93,0.00,,---,0.00,VWS V14.01,2013-06-27 12:51:00,
2013-06-27 06:55:00,49.6,47.4,24.98,WSW,241,4.0,5.8,92,0.00,,---,0.00,VWS V14.01,2013-06-27 12:55:00,
2013-06-27 07:00:00,50.0,47.8,24.98,West,259,3.1,3.6,92,0.00,,---,0.00,VWS V14.01,2013-06-27 13:00:00,
2013-06-27 07:05:00,50.5,48.3,24.98,WNW,301,2.7,4.0,92,0.00,,---,0.00,VWS V14.01,2013-06-27 13:05:00,
2013-06-27 07:10:00,50.9,48.7,25.01,West,262,4.0,4.0,92,0.00,,---,0.00,VWS V14.01,2013-06-27 13:10:00,
2013-06-27 07:15:00,51.4,48.9,25.01,NW,305,2.7,4.9,91,0.00,,---,0.00,VWS V14.01,2013-06-27 13:15:00,
2013-06-27 07:20:00,51.8,48.7,25.01,West,266,3.1,4.0,89,0.00,,---,0.00,VWS V14.01,2013-06-27 13:20:00,
2013-06-27 07:25:00,52.3,48.9,25.01,WSW,252,4.0,4.0,88,0.00,,---,0.00,VWS V14.01,2013-06-27 13:25:00,
2013-06-27 07:30:00,52.9,48.8,25.01,WSW,241,3.1,4.9,86,0.00,,---,0.00,VWS V14.01,2013-06-27 13:30:00,
2013-06-27 07:35:00,53.2,48.8,25.01,West,259,3.6,4.0,85,0.00,,---,0.00,VWS V14.01,2013-06-27 13:35:00,
2013-06-27 07:40:00,53.6,48.6,25.01,WNW,292,2.7,3.6,83,0.00,,---,0.00,VWS V14.01,2013-06-27 13:40:00,
2013-06-27 07:45:00,54.1,48.8,25.01,WSW,251,0.0,0.0,82,0.00,,---,0.00,VWS V14.01,2013-06-27 13:45:00,
2013-06-27 07:50:00,54.7,49.3,25.01,West,264,2.7,3.6,82,0.00,,---,0.00,VWS V14.01,2013-06-27 13:50:00,
2013-06-27 07:55:00,55.0,49.0,25.01,West,270,3.1,3.6,80,0.00,,---,0.00,VWS V14.01,2013-06-27 13:55:00,
2013-06-27 08:00:00,55.6,48.8,25.01,NW,304,3.1,4.0,78,0.00,,---,0.00,VWS V14.01,2013-06-27 14:00:00,
2013-06-27 08:05:00,55.9,48.5,25.01,WNW,296,2.7,3.6,76,0.00,,---,0.00,VWS V14.01,2013-06-27 14:05:00,
2013-06-27 08:10:00,56.3,48.1,25.01,WNW,285,0.0,3.1,74,0.00,,---,0.00,VWS V14.01,2013-06-27 14:10:00,
2013-06-27 08:15:00,56.8,49.0,25.01,WNW,284,0.0,0.0,75,0.00,,---,0.00,VWS V14.01,2013-06-27 14:15:00,
2013-06-27 08:20:00,57.4,48.8,25.01,NW,304,0.0,0.0,73,0.00,,---,0.00,VWS V14.01,2013-06-27 14:20:00,
2013-06-27 08:25:00,57.7,48.8,25.01,NW,307,0.0,0.0,72,0.00,,---,0.00,VWS V14.01,2013-06-27 14:25:00,
2013-06-27 08:30:00,58.1,48.8,25.01,NW,307,0.0,0.0,71,0.00,,---,0.00,VWS V14.01,2013-06-27 14:30:00,
2013-06-27 08:35:00,58.6,49.3,25.01,NW,307,0.0,0.0,71,0.00,,---,0.00,VWS V14.01,2013-06-27 14:35:00,
2013-06-27 08:40:00,59.0,49.2,25.01,NW,309,0.0,0.0,70,0.00,,---,0.00,VWS V14.01,2013-06-27 14:40:00,
2013-06-27 08:45:00,59.9,50.1,25.01,North,357,0.0,0.0,70,0.00,,---,0.00,VWS V14.01,2013-06-27 14:45:00,
2013-06-27 08:50:00,60.4,50.2,25.01,North,353,0.0,0.0,69,0.00,,---,0.00,VWS V14.01,2013-06-27 14:50:00,
2013-06-27 08:55:00,60.4,49.0,24.98,North,353,0.0,0.0,66,0.00,,---,0.00,VWS V14.01,2013-06-27 14:55:00,
2013-06-27 09:00:00,61.0,49.5,24.98,North,1,0.0,0.0,66,0.00,,---,0.00,VWS V14.01,2013-06-27 15:00:00,
2013-06-27 09:05:00,61.7,49.8,24.98,ENE,57,0.0,3.1,65,0.00,,---,0.00,VWS V14.01,2013-06-27 15:05:00,
2013-06-27 09:10:00,62.2,50.3,25.01,NE,43,2.7,4.0,65,0.00,,---,0.00,VWS V14.01,2013-06-27 15:10:00,
2013-06-27 09:15:00,63.1,50.3,25.01,NE,44,2.7,2.7,63,0.00,,---,0.00,VWS V14.01,2013-06-27 15:15:00,
2013-06-27 09:20:00,63.9,50.2,25.01,NE,54,0.0,0.0,61,0.00,,---,0.00,VWS V14.01,2013-06-27 15:20:00,
2013-06-27 09:25:00,63.1,48.1,24.98,NW,323,2.2,2.7,58,0.00,,---,0.00,VWS V14.01,2013-06-27 15:25:00,
2013-06-27 09:30:00,63.1,49.0,24.98,NW,319,3.6,3.6,60,0.00,,---,0.00,VWS V14.01,2013-06-27 15:30:00,
2013-06-27 09:35:00,63.3,49.7,24.98,NE,44,0.0,0.0,61,0.00,,---,0.00,VWS V14.01,2013-06-27 15:35:00,
2013-06-27 09:40:00,64.4,50.2,25.01,NE,36,0.0,0.0,60,0.00,,---,0.00,VWS V14.01,2013-06-27 15:40:00,
2013-06-27 09:45:00,66.0,49.4,25.01,NE,51,0.0,3.1,55,0.00,,---,0.00,VWS V14.01,2013-06-27 15:45:00,
2013-06-27 09:50:00,67.1,49.4,25.01,ENE,68,3.6,6.3,53,0.00,,---,0.00,VWS V14.01,2013-06-27 15:50:00,
2013-06-27 09:55:00,68.2,48.3,25.01,NE,34,5.4,5.4,49,0.00,,---,0.00,VWS V14.01,2013-06-27 15:55:00,
2013-06-27 10:00:00,69.1,48.0,25.01,NE,53,5.8,6.3,47,0.00,,---,0.00,VWS V14.01,2013-06-27 16:00:00,
2013-06-27 10:05:00,69.6,48.0,25.01,NNE,30,3.1,5.4,46,0.00,,---,0.00,VWS V14.01,2013-06-27 16:05:00,
2013-06-27 10:10:00,69.8,46.3,24.98,NNE,13,3.6,4.0,43,0.00,,---,0.00,VWS V14.01,2013-06-27 16:10:00,
2013-06-27 10:15:00,69.4,46.0,24.98,NE,51,3.1,3.1,43,0.00,,---,0.00,VWS V14.01,2013-06-27 16:15:00,
2013-06-27 10:20:00,68.9,43.6,24.98,NW,325,3.1,4.9,40,0.00,,---,0.00,VWS V14.01,2013-06-27 16:20:00,
2013-06-27 10:25:00,68.5,45.2,25.01,NW,323,2.2,3.6,43,0.00,,---,0.00,VWS V14.01,2013-06-27 16:25:00,
2013-06-27 10:30:00,68.5,44.6,25.01,WNW,293,0.0,2.7,42,0.00,,---,0.00,VWS V14.01,2013-06-27 16:30:00,
2013-06-27 10:35:00,68.5,44.6,25.01,WSW,257,0.0,0.0,42,0.00,,---,0.00,VWS V14.01,2013-06-27 16:35:00,
2013-06-27 10:40:00,68.9,44.2,25.01,WNW,300,3.6,4.0,41,0.00,,---,0.00,VWS V14.01,2013-06-27 16:40:00,
2013-06-27 10:45:00,69.1,43.1,25.01,NW,318,0.0,0.0,39,0.00,,---,0.00,VWS V14.01,2013-06-27 16:45:00,
2013-06-27 10:50:00,70.0,42.5,25.01,SE,145,6.3,6.3,37,0.00,,---,0.00,VWS V14.01,2013-06-27 16:50:00,
2013-06-27 10:55:00,70.3,42.9,24.98,SSE,153,4.9,7.6,37,0.00,,---,0.00,VWS V14.01,2013-06-27 16:55:00,
2013-06-27 11:00:00,71.1,44.2,24.98,ESE,106,3.6,3.6,38,0.00,,---,0.00,VWS V14.01,2013-06-27 17:00:00,
2013-06-27 11:05:00,71.6,43.3,24.98,SE,131,8.1,8.1,36,0.00,,---,0.00,VWS V14.01,2013-06-27 17:05:00,
2013-06-27 11:10:00,72.0,43.6,25.01,SSE,147,7.6,10.5,36,0.00,,---,0.00,VWS V14.01,2013-06-27 17:10:00,
2013-06-27 11:15:00,72.1,44.5,25.01,SSE,149,3.1,5.8,37,0.00,,---,0.00,VWS V14.01,2013-06-27 17:15:00,
2013-06-27 11:20:00,72.5,44.8,25.01,SSE,151,8.1,8.1,37,0.00,,---,0.00,VWS V14.01,2013-06-27 17:20:00,
2013-06-27 11:25:00,72.7,43.5,24.98,SE,133,8.7,8.7,35,0.00,,---,0.00,VWS V14.01,2013-06-27 17:25:00,
2013-06-27 11:30:00,72.7,44.2,24.98,SE,135,5.8,5.8,36,0.00,,---,0.00,VWS V14.01,2013-06-27 17:30:00,
2013-06-27 11:35:00,73.6,43.5,24.98,ESE,102,8.1,8.1,34,0.00,,---,0.00,VWS V14.01,2013-06-27 17:35:00,
2013-06-27 11:40:00,73.4,43.3,24.98,SE,128,3.1,4.0,34,0.00,,---,0.00,VWS V14.01,2013-06-27 17:40:00,
2013-06-27 11:45:00,74.1,44.0,24.98,East,91,5.4,5.4,34,0.00,,---,0.00,VWS V14.01,2013-06-27 17:45:00,
2013-06-27 11:50:00,74.5,44.3,24.98,ESE,122,3.6,3.6,34,0.00,,---,0.00,VWS V14.01,2013-06-27 17:50:00,
2013-06-27 11:55:00,74.5,42.7,25.01,SSE,149,3.1,3.1,32,0.00,,---,0.00,VWS V14.01,2013-06-27 17:55:00,
2013-06-27 12:00:00,74.8,43.8,25.01,SW,219,0.0,0.0,33,0.00,,---,0.00,VWS V14.01,2013-06-27 18:00:00,
2013-06-27 12:05:00,76.1,46.5,25.01,ENE,73,6.7,6.7,35,0.00,,---,0.00,VWS V14.01,2013-06-27 18:05:00,
2013-06-27 12:10:00,76.3,45.9,25.01,NE,51,7.6,7.6,34,0.00,,---,0.00,VWS V14.01,2013-06-27 18:10:00,
2013-06-27 12:15:00,77.0,46.5,25.01,NNE,21,3.6,3.6,34,0.00,,---,0.00,VWS V14.01,2013-06-27 18:15:00,
2013-06-27 12:20:00,77.2,45.1,25.01,ENE,58,8.3,8.3,32,0.00,,---,0.00,VWS V14.01,2013-06-27 18:20:00,
2013-06-27 12:25:00,76.6,44.6,25.01,ENE,68,5.4,8.1,32,0.00,,---,0.00,VWS V14.01,2013-06-27 18:25:00,
2013-06-27 12:30:00,77.5,45.4,25.01,East,92,6.3,7.2,32,0.00,,---,0.00,VWS V14.01,2013-06-27 18:30:00,
2013-06-27 12:35:00,78.4,47.0,25.01,NNW,332,5.4,5.4,33,0.00,,---,0.00,VWS V14.01,2013-06-27 18:35:00,
2013-06-27 12:40:00,77.9,45.7,25.01,NE,55,4.0,6.3,32,0.00,,---,0.00,VWS V14.01,2013-06-27 18:40:00,
2013-06-27 12:45:00,78.6,45.5,25.01,NE,40,6.3,8.1,31,0.00,,---,0.00,VWS V14.01,2013-06-27 18:45:00,
2013-06-27 12:50:00,77.2,44.2,25.01,SE,128,4.9,6.7,31,0.00,,---,0.00,VWS V14.01,2013-06-27 18:50:00,
2013-06-27 12:55:00,77.0,44.9,24.98,WSW,257,5.4,5.8,32,0.00,,---,0.00,VWS V14.01,2013-06-27 18:55:00,
2013-06-27 13:00:00,75.9,44.8,24.98,NW,306,3.1,4.0,33,0.00,,---,0.00,VWS V14.01,2013-06-27 19:00:00,
2013-06-27 13:05:00,75.9,47.1,24.98,NW,315,2.2,3.6,36,0.00,,---,0.00,VWS V14.01,2013-06-27 19:05:00,
2013-06-27 13:10:00,77.4,45.2,25.01,ENE,73,6.3,6.3,32,0.00,,---,0.00,VWS V14.01,2013-06-27 19:10:00,
2013-06-27 13:15:00,78.3,45.2,25.01,NE,54,0.0,0.0,31,0.00,,---,0.00,VWS V14.01,2013-06-27 19:15:00,
2013-06-27 13:20:00,78.4,47.0,25.01,WNW,296,2.7,2.7,33,0.00,,---,0.00,VWS V14.01,2013-06-27 19:20:00,
2013-06-27 13:25:00,79.2,46.8,25.01,NE,54,2.2,2.2,32,0.00,,---,0.00,VWS V14.01,2013-06-27 19:25:00,
2013-06-27 13:30:00,78.8,46.5,25.01,ENE,58,3.1,4.0,32,0.00,,---,0.00,VWS V14.01,2013-06-27 19:30:00,
2013-06-27 13:35:00,79.3,47.0,25.01,East,91,2.2,5.4,32,0.00,,---,0.00,VWS V14.01,2013-06-27 19:35:00,
2013-06-27 13:40:00,79.2,46.0,25.01,North,357,3.1,5.4,31,0.00,,---,0.00,VWS V14.01,2013-06-27 19:40:00,
2013-06-27 13:45:00,79.5,46.3,25.01,East,79,4.0,6.3,31,0.00,,---,0.00,VWS V14.01,2013-06-27 19:45:00,
2013-06-27 13:50:00,80.4,46.2,25.01,SSE,150,3.6,3.6,30,0.00,,---,0.00,VWS V14.01,2013-06-27 19:50:00,
2013-06-27 13:55:00,80.2,39.1,25.01,NW,305,5.4,5.8,23,0.00,,---,0.00,VWS V14.01,2013-06-27 19:55:00,
2013-06-27 14:00:00,79.5,37.4,25.01,NW,320,10.1,11.0,22,0.00,,---,0.00,VWS V14.01,2013-06-27 20:00:00,
2013-06-27 14:05:00,79.2,35.9,25.01,WNW,293,8.3,8.3,21,0.00,,---,0.00,VWS V14.01,2013-06-27 20:05:00,
2013-06-27 14:10:00,79.0,35.8,24.98,WSW,257,7.6,8.1,21,0.00,,---,0.00,VWS V14.01,2013-06-27 20:10:00,
2013-06-27 14:15:00,78.6,36.6,24.98,WNW,288,7.6,7.6,22,0.00,,---,0.00,VWS V14.01,2013-06-27 20:15:00,
2013-06-27 14:20:00,78.4,35.3,24.98,NW,316,5.8,10.5,21,0.00,,---,0.00,VWS V14.01,2013-06-27 20:20:00,
2013-06-27 14:25:00,78.3,35.2,24.98,WSW,256,10.5,10.5,21,0.00,,---,0.00,VWS V14.01,2013-06-27 20:25:00,
2013-06-27 14:30:00,78.6,36.6,24.98,West,268,11.0,12.3,22,0.00,,---,0.00,VWS V14.01,2013-06-27 20:30:00,
2013-06-27 14:35:00,79.0,35.8,24.98,NW,318,6.3,11.0,21,0.00,,---,0.00,VWS V14.01,2013-06-27 20:35:00,
2013-06-27 14:40:00,79.3,36.0,24.98,WNW,293,8.7,8.7,21,0.00,,---,0.00,VWS V14.01,2013-06-27 20:40:00,
2013-06-27 14:45:00,79.3,36.0,24.98,NW,311,7.6,7.6,21,0.00,,---,0.00,VWS V14.01,2013-06-27 20:45:00,
2013-06-27 14:50:00,79.7,36.3,24.98,WNW,288,8.3,8.3,21,0.00,,---,0.00,VWS V14.01,2013-06-27 20:50:00,
2013-06-27 14:55:00,79.7,36.3,24.98,West,277,7.6,8.1,21,0.00,,---,0.00,VWS V14.01,2013-06-27 20:55:00,
2013-06-27 15:00:00,79.5,36.2,24.98,NW,323,4.0,5.8,21,0.00,,---,0.00,VWS V14.01,2013-06-27 21:00:00,
2013-06-27 15:06:00,79.9,36.5,24.98,WNW,284,4.0,5.8,21,0.00,,---,0.00,VWS V14.01,2013-06-27 21:06:00,
2013-06-27 15:11:00,80.1,36.7,24.98,WNW,297,10.5,10.5,21,0.00,,---,0.00,VWS V14.01,2013-06-27 21:11:00,
2013-06-27 15:16:00,79.9,36.5,24.98,NW,304,6.3,8.3,21,0.00,,---,0.00,VWS V14.01,2013-06-27 21:16:00,
2013-06-27 15:21:00,79.7,36.3,24.98,SW,216,3.6,6.3,21,0.00,,---,0.00,VWS V14.01,2013-06-27 21:21:00,
2013-06-27 15:26:00,79.9,36.5,24.98,WNW,284,3.1,3.1,21,0.00,,---,0.00,VWS V14.01,2013-06-27 21:26:00,
2013-06-27 15:31:00,80.8,36.0,24.98,West,270,2.7,3.6,20,0.00,,---,0.00,VWS V14.01,2013-06-27 21:31:00,
2013-06-27 15:36:00,80.1,36.7,24.98,NW,324,2.7,2.7,21,0.00,,---,0.00,VWS V14.01,2013-06-27 21:36:00,
2013-06-27 15:41:00,80.2,36.8,24.98,NW,318,5.8,5.8,21,0.00,,---,0.00,VWS V14.01,2013-06-27 21:41:00,
2013-06-27 15:46:00,80.1,36.7,24.98,West,278,7.6,7.6,21,0.00,,---,0.00,VWS V14.01,2013-06-27 21:46:00,
2013-06-27 15:51:00,80.2,36.8,24.98,West,261,3.6,6.7,21,0.00,,---,0.00,VWS V14.01,2013-06-27 21:51:00,
2013-06-27 15:56:00,80.2,36.8,24.98,NW,313,8.3,8.3,21,0.00,,---,0.00,VWS V14.01,2013-06-27 21:56:00,
2013-06-27 16:01:00,80.1,36.7,24.98,West,275,5.4,6.3,21,0.00,,---,0.00,VWS V14.01,2013-06-27 22:01:00,
2013-06-27 16:06:00,79.9,36.5,24.98,NW,306,5.8,8.3,21,0.00,,---,0.00,VWS V14.01,2013-06-27 22:06:00,
2013-06-27 16:11:00,80.1,36.7,24.98,West,276,4.0,8.1,21,0.00,,---,0.00,VWS V14.01,2013-06-27 22:11:00,
2013-06-27 16:17:00,80.4,37.0,24.98,NW,314,2.7,3.6,21,0.00,,---,0.00,VWS V14.01,2013-06-27 22:17:00,
2013-06-27 16:22:00,80.4,37.0,24.98,WSW,250,5.4,8.7,21,0.00,,---,0.00,VWS V14.01,2013-06-27 22:22:00,
2013-06-27 16:27:00,80.8,36.0,24.98,WSW,251,2.2,3.6,20,0.00,,---,0.00,VWS V14.01,2013-06-27 22:27:00,
2013-06-27 16:32:00,80.8,36.0,24.98,SW,236,5.4,5.8,20,0.00,,---,0.00,VWS V14.01,2013-06-27 22:32:00,
2013-06-27 16:37:00,80.8,36.0,24.98,WSW,252,4.0,4.9,20,0.00,,---,0.00,VWS V14.01,2013-06-27 22:37:00,
2013-06-27 16:42:00,80.8,36.0,24.98,WNW,303,8.3,8.3,20,0.00,,---,0.00,VWS V14.01,2013-06-27 22:42:00,
2013-06-27 16:47:00,80.6,35.9,24.98,WSW,253,4.0,5.4,20,0.00,,---,0.00,VWS V14.01,2013-06-27 22:47:00,
2013-06-27 16:52:00,80.6,35.9,25.01,West,266,4.0,5.4,20,0.00,,---,0.00,VWS V14.01,2013-06-27 22:52:00,
2013-06-27 16:57:00,80.8,36.0,25.01,WNW,295,5.4,6.3,20,0.00,,---,0.00,VWS V14.01,2013-06-27 22:57:00,
2013-06-27 17:02:00,81.1,36.3,25.01,WNW,286,5.8,11.0,20,0.00,,---,0.00,VWS V14.01,2013-06-27 23:02:00,
2013-06-27 17:07:00,81.7,36.8,24.98,West,274,8.3,8.7,20,0.00,,---,0.00,VWS V14.01,2013-06-27 23:07:00,
2013-06-27 17:13:00,81.9,36.9,24.98,West,261,3.6,6.3,20,0.00,,---,0.00,VWS V14.01,2013-06-27 23:13:00,
2013-06-27 17:18:00,82.0,37.0,24.98,West,261,4.0,5.4,20,0.00,,---,0.00,VWS V14.01,2013-06-27 23:18:00,
2013-06-27 17:23:00,82.6,37.5,25.01,NW,317,4.5,5.8,20,0.00,,---,0.00,VWS V14.01,2013-06-27 23:23:00,
2013-06-27 17:28:00,82.4,37.3,25.01,WNW,296,2.7,6.3,20,0.00,,---,0.00,VWS V14.01,2013-06-27 23:28:00,
2013-06-27 17:33:00,82.9,37.8,25.01,North,0,0.0,2.7,20,0.00,,---,0.00,VWS V14.01,2013-06-27 23:33:00,
2013-06-27 17:38:00,83.7,38.4,25.01,NW,306,9.6,9.6,20,0.00,,---,0.00,VWS V14.01,2013-06-27 23:38:00,
2013-06-27 17:43:00,83.5,38.2,25.01,NNW,329,5.8,5.8,20,0.00,,---,0.00,VWS V14.01,2013-06-27 23:43:00,
2013-06-27 17:48:00,83.3,38.1,25.01,NNE,29,4.0,4.9,20,0.00,,---,0.00,VWS V14.01,2013-06-27 23:48:00,
2013-06-27 17:53:00,84.2,40.1,25.01,WNW,301,2.2,4.0,21,0.00,,---,0.00,VWS V14.01,2013-06-27 23:53:00,
2013-06-27 17:58:00,84.4,40.2,25.01,East,95,0.0,3.1,21,0.00,,---,0.00,VWS V14.01,2013-06-27 23:58:00,
2013-06-27 18:03:00,84.7,40.5,25.01,NE,56,5.8,5.8,21,0.00,,---,0.00,VWS V14.01,2013-06-28 00:03:00,
2013-06-27 18:09:00,85.3,41.0,25.01,NNE,16,7.6,8.1,21,0.00,,---,0.00,VWS V14.01,2013-06-28 00:09:00,
2013-06-27 18:14:00,85.1,40.8,25.01,NNE,28,8.3,8.3,21,0.00,,---,0.00,VWS V14.01,2013-06-28 00:14:00,
2013-06-27 18:19:00,84.6,40.4,25.01,NNE,24,3.1,6.3,21,0.00,,---,0.00,VWS V14.01,2013-06-28 00:19:00,
2013-06-27 18:24:00,84.4,41.4,25.01,NNE,12,2.7,5.8,22,0.00,,---,0.00,VWS V14.01,2013-06-28 00:24:00,
2013-06-27 18:29:00,84.2,40.1,25.01,North,353,8.1,8.1,21,0.00,,---,0.00,VWS V14.01,2013-06-28 00:29:00,
2013-06-27 18:34:00,82.9,40.2,25.01,North,353,2.7,2.7,22,0.00,,---,0.00,VWS V14.01,2013-06-28 00:34:00,
2013-06-27 18:39:00,82.0,39.5,25.01,NNE,28,4.0,5.4,22,0.00,,---,0.00,VWS V14.01,2013-06-28 00:39:00,
2013-06-27 18:44:00,82.0,40.6,25.01,NE,34,6.3,6.3,23,0.00,,---,0.00,VWS V14.01,2013-06-28 00:44:00,
2013-06-27 18:49:00,81.5,40.2,25.01,NE,49,5.4,5.4,23,0.00,,---,0.00,VWS V14.01,2013-06-28 00:49:00,
2013-06-27 18:54:00,81.1,39.9,25.01,NE,50,3.1,4.5,23,0.00,,---,0.00,VWS V14.01,2013-06-28 00:54:00,
2013-06-27 18:59:00,81.3,40.0,25.01,North,357,3.6,4.0,23,0.00,,---,0.00,VWS V14.01,2013-06-28 00:59:00,
2013-06-27 19:04:00,81.1,39.9,25.01,NE,47,3.1,5.8,23,0.00,,---,0.00,VWS V14.01,2013-06-28 01:04:00,
2013-06-27 19:09:00,80.4,39.3,24.98,NE,43,4.0,6.3,23,0.00,,---,0.00,VWS V14.01,2013-06-28 01:09:00,
2013-06-27 19:14:00,79.7,37.5,24.98,NE,51,7.6,7.6,22,0.00,,---,0.00,VWS V14.01,2013-06-28 01:14:00,
2013-06-27 19:19:00,80.1,37.8,24.98,NNE,21,3.6,4.0,22,0.00,,---,0.00,VWS V14.01,2013-06-28 01:19:00,
2013-06-27 19:24:00,80.6,38.3,25.01,NNE,12,4.9,6.7,22,0.00,,---,0.00,VWS V14.01,2013-06-28 01:24:00,
2013-06-27 19:29:00,81.0,38.6,25.01,ENE,70,5.4,5.4,22,0.00,,---,0.00,VWS V14.01,2013-06-28 01:29:00,
2013-06-27 19:34:00,80.6,38.3,25.01,NE,56,5.8,8.7,22,0.00,,---,0.00,VWS V14.01,2013-06-28 01:34:00,
2013-06-27 19:39:00,80.2,38.0,25.01,NNE,22,5.8,6.3,22,0.00,,---,0.00,VWS V14.01,2013-06-28 01:39:00,
2013-06-27 19:45:00,80.1,37.8,25.01,North,8,5.4,8.1,22,0.00,,---,0.00,VWS V14.01,2013-06-28 01:45:00,
2013-06-27 19:50:00,79.9,37.7,25.01,NE,35,2.7,7.6,22,0.00,,---,0.00,VWS V14.01,2013-06-28 01:50:00,
2013-06-27 19:55:00,79.5,37.4,25.01,NE,50,4.0,4.0,22,0.00,,---,0.00,VWS V14.01,2013-06-28 01:55:00,
2013-06-27 20:00:00,79.7,37.5,25.01,NE,55,4.5,4.5,22,0.00,,---,0.00,VWS V14.01,2013-06-28 02:00:00,
2013-06-27 20:05:00,79.7,37.5,25.01,NE,55,4.0,6.3,22,0.00,,---,0.00,VWS V14.01,2013-06-28 02:05:00,
2013-06-27 20:10:00,79.3,38.4,25.01,North,5,3.1,3.1,23,0.00,,---,0.00,VWS V14.01,2013-06-28 02:10:00,
2013-06-27 20:15:00,79.2,38.2,25.01,NE,44,2.7,3.1,23,0.00,,---,0.00,VWS V14.01,2013-06-28 02:15:00,
2013-06-27 20:20:00,79.3,38.4,25.01,North,0,0.0,0.0,23,0.00,,---,0.00,VWS V14.01,2013-06-28 02:20:00,
2013-06-27 20:25:00,79.3,38.4,25.01,NE,43,4.0,4.0,23,0.00,,---,0.00,VWS V14.01,2013-06-28 02:25:00,
2013-06-27 20:30:00,79.2,38.2,25.01,NE,43,3.6,4.0,23,0.00,,---,0.00,VWS V14.01,2013-06-28 02:30:00,
2013-06-27 20:35:00,78.8,39.0,25.01,NE,46,0.0,0.0,24,0.00,,---,0.00,VWS V14.01,2013-06-28 02:35:00,
2013-06-27 20:40:00,78.3,38.5,25.01,ENE,64,4.5,4.5,24,0.00,,---,0.00,VWS V14.01,2013-06-28 02:40:00,
2013-06-27 20:45:00,77.4,38.8,25.01,ENE,62,0.0,0.0,25,0.00,,---,0.00,VWS V14.01,2013-06-28 02:45:00,
2013-06-27 20:50:00,76.3,39.9,25.01,ENE,75,0.0,0.0,27,0.00,,---,0.00,VWS V14.01,2013-06-28 02:50:00,
2013-06-27 20:56:00,74.8,39.6,25.01,SE,145,0.0,0.0,28,0.00,,---,0.00,VWS V14.01,2013-06-28 02:56:00,
2013-06-27 21:01:00,74.1,39.9,25.01,SE,141,0.0,0.0,29,0.00,,---,0.00,VWS V14.01,2013-06-28 03:01:00,
2013-06-27 21:06:00,73.8,40.4,25.01,SE,131,0.0,0.0,30,0.00,,---,0.00,VWS V14.01,2013-06-28 03:06:00,
2013-06-27 21:11:00,73.4,41.0,25.01,SE,124,0.0,0.0,31,0.00,,---,0.00,VWS V14.01,2013-06-28 03:11:00,
2013-06-27 21:16:00,73.0,41.5,25.01,SE,124,0.0,0.0,32,0.00,,---,0.00,VWS V14.01,2013-06-28 03:16:00,
2013-06-27 21:21:00,72.7,41.2,25.01,SE,124,0.0,0.0,32,0.00,,---,0.00,VWS V14.01,2013-06-28 03:21:00,
2013-06-27 21:26:00,72.3,40.8,25.01,ESE,123,0.0,0.0,32,0.00,,---,0.00,VWS V14.01,2013-06-28 03:26:00,
2013-06-27 21:31:00,72.0,40.5,25.01,ESE,123,0.0,0.0,32,0.00,,---,0.00,VWS V14.01,2013-06-28 03:31:00,
2013-06-27 21:36:00,71.4,40.8,25.01,SE,124,0.0,0.0,33,0.00,,---,0.00,VWS V14.01,2013-06-28 03:36:00,
2013-06-27 21:41:00,70.9,40.4,25.01,SE,124,0.0,0.0,33,0.00,,---,0.00,VWS V14.01,2013-06-28 03:41:00,
2013-06-27 21:46:00,70.3,40.7,25.01,SE,144,0.0,0.0,34,0.00,,---,0.00,VWS V14.01,2013-06-28 03:46:00,
2013-06-27 21:51:00,69.6,41.5,25.01,West,264,3.1,4.0,36,0.00,,---,0.00,VWS V14.01,2013-06-28 03:51:00,
2013-06-27 21:56:00,68.9,42.3,25.04,WSW,244,4.0,4.9,38,0.00,,---,0.00,VWS V14.01,2013-06-28 03:56:00,
2013-06-27 22:01:00,68.4,42.5,25.04,West,275,4.9,5.4,39,0.00,,---,0.00,VWS V14.01,2013-06-28 04:01:00,
2013-06-27 22:06:00,67.6,43.1,25.04,WSW,239,4.5,4.5,41,0.00,,---,0.00,VWS V14.01,2013-06-28 04:06:00,
2013-06-27 22:11:00,67.1,43.3,25.04,West,265,3.6,3.6,42,0.00,,---,0.00,VWS V14.01,2013-06-28 04:11:00,
2013-06-27 22:16:00,66.7,43.5,25.04,WSW,239,3.1,3.6,43,0.00,,---,0.00,VWS V14.01,2013-06-28 04:16:00,
2013-06-27 22:21:00,66.6,43.4,25.04,West,271,6.3,6.3,43,0.00,,---,0.00,VWS V14.01,2013-06-28 04:21:00,
2013-06-27 22:26:00,66.4,43.2,25.04,West,267,5.4,5.4,43,0.00,,---,0.00,VWS V14.01,2013-06-28 04:26:00,
2013-06-27 22:31:00,65.8,43.3,25.04,WSW,241,4.0,5.4,44,0.00,,---,0.00,VWS V14.01,2013-06-28 04:31:00,
2013-06-27 22:36:00,65.5,43.6,25.04,West,271,5.4,5.8,45,0.00,,---,0.00,VWS V14.01,2013-06-28 04:36:00,
2013-06-27 22:41:00,64.9,43.1,25.04,West,269,4.0,4.9,45,0.00,,---,0.00,VWS V14.01,2013-06-28 04:41:00,
2013-06-27 22:46:00,64.8,43.5,25.04,West,270,4.5,6.3,46,0.00,,---,0.00,VWS V14.01,2013-06-28 04:46:00,
2013-06-27 22:51:00,64.4,43.2,25.04,WSW,255,3.6,4.0,46,0.00,,---,0.00,VWS V14.01,2013-06-28 04:51:00,
2013-06-27 22:56:00,64.2,43.0,25.07,SW,223,2.7,4.9,46,0.00,,---,0.00,VWS V14.01,2013-06-28 04:56:00,
2013-06-27 23:01:00,64.4,43.2,25.07,WSW,244,0.0,3.6,46,0.00,,---,0.00,VWS V14.01,2013-06-28 05:01:00,
2013-06-27 23:06:00,64.0,43.4,25.07,West,273,3.1,3.6,47,0.00,,---,0.00,VWS V14.01,2013-06-28 05:06:00,
2013-06-27 23:11:00,63.9,43.3,25.07,West,270,3.6,5.4,47,0.00,,---,0.00,VWS V14.01,2013-06-28 05:11:00,
2013-06-27 23:16:00,63.9,43.3,25.07,WNW,287,4.0,4.9,47,0.00,,---,0.00,VWS V14.01,2013-06-28 05:16:00,
2013-06-27 23:21:00,63.9,43.3,25.07,West,262,4.0,4.0,47,0.00,,---,0.00,VWS V14.01,2013-06-28 05:21:00,
2013-06-27 23:26:00,63.7,43.1,25.07,WSW,256,4.9,5.8,47,0.00,,---,0.00,VWS V14.01,2013-06-28 05:26:00,
2013-06-27 23:31:00,63.3,43.3,25.07,WSW,251,5.8,6.3,48,0.00,,---,0.00,VWS V14.01,2013-06-28 05:31:00,
2013-06-27 23:36:00,63.0,43.0,25.07,WNW,286,4.0,5.4,48,0.00,,---,0.00,VWS V14.01,2013-06-28 05:36:00,
2013-06-27 23:41:00,62.4,43.5,25.07,WSW,237,3.6,5.4,50,0.00,,---,0.00,VWS V14.01,2013-06-28 05:41:00,
2013-06-27 23:46:00,62.2,43.4,25.07,WSW,244,4.9,4.9,50,0.00,,---,0.00,VWS V14.01,2013-06-28 05:46:00,
2013-06-27 23:51:00,62.1,43.2,25.07,WSW,258,4.0,4.0,50,0.00,,---,0.00,VWS V14.01,2013-06-28 05:51:00,
2013-06-27 23:56:00,61.9,43.6,25.04,WSW,248,3.6,5.8,51,0.00,,---,0.00,VWS V14.01,2013-06-28 05:56:00,